sensor_id;sensor_type;location;lat;lon;timestamp;temperature;humidity
3402;DHT22;1714;49.756;8.610;2023-03-23T04:32:28;13.90;22.60
3402;DHT22;1714;49.756;8.610;2023-03-23T04:43:05;13.60;25.10
3402;DHT22;1714;49.756;8.610;2023-03-23T04:53:58;13.60;25.90
3402;DHT22;1714;49.756;8.610;2023-03-23T05:04:33;13.50;26.90
3402;DHT22;1714;49.756;8.610;2023-03-23T05:15:18;13.50;26.60
3402;DHT22;1714;49.756;8.610;2023-03-23T05:25:55;13.90;26.10
3402;DHT22;1714;49.756;8.610;2023-03-23T05:36:31;13.80;26.50
3402;DHT22;1714;49.756;8.610;2023-03-23T05:47:23;13.70;27.20
3402;DHT22;1714;49.756;8.610;2023-03-23T05:58:03;13.70;30.10
3402;DHT22;1714;49.756;8.610;2023-03-23T06:08:42;13.60;35.20
3402;DHT22;1714;49.756;8.610;2023-03-23T06:19:17;13.40;38.10
3402;DHT22;1714;49.756;8.610;2023-03-23T06:30:03;13.30;39.10
3402;DHT22;1714;49.756;8.610;2023-03-23T06:40:39;13.20;42.00
3402;DHT22;1714;49.756;8.610;2023-03-23T06:51:14;13.10;43.60
3402;DHT22;1714;49.756;8.610;2023-03-23T07:01:54;13.10;46.00
3402;DHT22;1714;49.756;8.610;2023-03-23T07:12:09;12.90;48.40
3402;DHT22;1714;49.756;8.610;2023-03-23T07:22:31;13.00;47.90
3402;DHT22;1714;49.756;8.610;2023-03-23T07:32:55;13.10;44.90
3402;DHT22;1714;49.756;8.610;2023-03-23T07:43:10;13.10;44.10
3402;DHT22;1714;49.756;8.610;2023-03-23T07:53:48;13.10;46.80
3402;DHT22;1714;49.756;8.610;2023-03-23T08:04:22;13.00;47.10
3402;DHT22;1714;49.756;8.610;2023-03-23T08:15:00;13.10;45.80
3402;DHT22;1714;49.756;8.610;2023-03-23T08:25:32;13.10;47.00
3402;DHT22;1714;49.756;8.610;2023-03-23T08:36:01;13.10;48.30
3402;DHT22;1714;49.756;8.610;2023-03-23T08:46:40;13.00;49.90
3402;DHT22;1714;49.756;8.610;2023-03-23T08:57:05;13.10;48.50
3402;DHT22;1714;49.756;8.610;2023-03-23T09:07:32;13.20;50.30
3402;DHT22;1714;49.756;8.610;2023-03-23T09:17:49;13.00;51.30
3402;DHT22;1714;49.756;8.610;2023-03-23T09:28:04;13.20;49.90
3402;DHT22;1714;49.756;8.610;2023-03-23T09:38:19;13.30;48.60
3402;DHT22;1714;49.756;8.610;2023-03-23T09:59:00;13.80;40.00
3402;DHT22;1714;49.756;8.610;2023-03-23T10:09:19;13.60;41.30
3402;DHT22;1714;49.756;8.610;2023-03-23T10:19:49;14.80;34.80
3402;DHT22;1714;49.756;8.610;2023-03-23T10:30:15;14.40;34.80
3402;DHT22;1714;49.756;8.610;2023-03-23T10:40:30;14.60;35.60
3402;DHT22;1714;49.756;8.610;2023-03-23T10:50:51;14.30;37.60
3402;DHT22;1714;49.756;8.610;2023-03-23T11:01:11;14.10;42.50
3402;DHT22;1714;49.756;8.610;2023-03-23T11:11:28;13.90;46.20
3402;DHT22;1714;49.756;8.610;2023-03-23T11:21:51;14.00;44.70
3402;DHT22;1714;49.756;8.610;2023-03-23T11:32:11;14.20;39.90
3402;DHT22;1714;49.756;8.610;2023-03-23T11:42:42;14.00;40.80
3402;DHT22;1714;49.756;8.610;2023-03-23T12:03:58;13.90;46.00
3402;DHT22;1714;49.756;8.610;2023-03-23T12:14:32;13.80;46.30
3402;DHT22;1714;49.756;8.610;2023-03-23T12:36:25;13.80;50.50
3402;DHT22;1714;49.756;8.610;2023-03-23T12:57:59;15.30;37.90
3402;DHT22;1714;49.756;8.610;2023-03-23T13:08:44;15.20;36.70
3402;DHT22;1714;49.756;8.610;2023-03-23T13:19:27;14.80;37.70
3402;DHT22;1714;49.756;8.610;2023-03-23T13:30:04;14.60;36.30
3402;DHT22;1714;49.756;8.610;2023-03-23T13:40:52;14.60;37.10
3402;DHT22;1714;49.756;8.610;2023-03-23T14:13:11;15.00;36.10
3402;DHT22;1714;49.756;8.610;2023-03-23T14:23:48;14.80;36.30
3402;DHT22;1714;49.756;8.610;2023-03-23T14:34:26;14.70;37.80
3402;DHT22;1714;49.756;8.610;2023-03-23T14:45:04;15.10;36.10
3402;DHT22;1714;49.756;8.610;2023-03-23T14:55:42;15.10;34.70
3402;DHT22;1714;49.756;8.610;2023-03-23T15:06:19;15.00;37.00
3402;DHT22;1714;49.756;8.610;2023-03-23T15:16:57;15.10;35.60
3402;DHT22;1714;49.756;8.610;2023-03-23T15:27:34;15.40;35.40
3402;DHT22;1714;49.756;8.610;2023-03-23T15:38:29;15.50;34.20
3402;DHT22;1714;49.756;8.610;2023-03-23T15:49:09;15.30;35.10
3402;DHT22;1714;49.756;8.610;2023-03-23T15:59:45;14.90;37.50
3402;DHT22;1714;49.756;8.610;2023-03-23T16:10:22;14.70;39.70
3402;DHT22;1714;49.756;8.610;2023-03-23T16:20:59;14.60;41.40
3402;DHT22;1714;49.756;8.610;2023-03-23T16:31:35;14.50;42.70
3402;DHT22;1714;49.756;8.610;2023-03-23T16:42:10;14.40;44.70
3402;DHT22;1714;49.756;8.610;2023-03-23T16:52:46;14.30;45.40
3402;DHT22;1714;49.756;8.610;2023-03-23T17:03:22;14.10;47.50
3402;DHT22;1714;49.756;8.610;2023-03-23T17:13:58;14.00;48.90
3402;DHT22;1714;49.756;8.610;2023-03-23T17:24:34;14.00;51.30
3402;DHT22;1714;49.756;8.610;2023-03-23T17:35:09;13.80;51.70
3402;DHT22;1714;49.756;8.610;2023-03-23T17:45:45;13.80;52.80
3402;DHT22;1714;49.756;8.610;2023-03-23T17:56:22;13.80;53.30
3402;DHT22;1714;49.756;8.610;2023-03-23T18:06:58;13.80;52.80
3402;DHT22;1714;49.756;8.610;2023-03-23T18:17:34;13.80;53.50
3402;DHT22;1714;49.756;8.610;2023-03-23T18:28:09;13.80;54.90
3402;DHT22;1714;49.756;8.610;2023-03-23T18:38:46;13.80;56.00
3402;DHT22;1714;49.756;8.610;2023-03-23T18:49:22;13.70;58.20
3402;DHT22;1714;49.756;8.610;2023-03-23T18:59:57;13.70;58.70
3402;DHT22;1714;49.756;8.610;2023-03-23T19:10:38;13.70;60.40
3402;DHT22;1714;49.756;8.610;2023-03-23T19:21:14;13.60;66.40
3402;DHT22;1714;49.756;8.610;2023-03-23T19:31:57;13.50;67.90
3402;DHT22;1714;49.756;8.610;2023-03-23T19:42:32;13.30;68.00
3402;DHT22;1714;49.756;8.610;2023-03-23T19:53:08;13.30;67.70
3402;DHT22;1714;49.756;8.610;2023-03-23T20:03:44;13.30;67.60
3402;DHT22;1714;49.756;8.610;2023-03-23T20:14:20;13.50;54.00
3402;DHT22;1714;49.756;8.610;2023-03-23T20:24:56;13.30;54.50
3402;DHT22;1714;49.756;8.610;2023-03-23T20:35:35;13.60;47.00
3402;DHT22;1714;49.756;8.610;2023-03-23T20:46:10;14.00;43.60
3402;DHT22;1714;49.756;8.610;2023-03-23T20:56:47;14.30;40.10
3402;DHT22;1714;49.756;8.610;2023-03-23T21:07:23;14.60;37.40
3402;DHT22;1714;49.756;8.610;2023-03-23T21:18:02;14.60;37.40
3402;DHT22;1714;49.756;8.610;2023-03-23T21:28:37;14.50;37.40
3402;DHT22;1714;49.756;8.610;2023-03-23T21:39:13;14.50;37.30
3402;DHT22;1714;49.756;8.610;2023-03-23T21:49:50;14.40;38.00
3402;DHT22;1714;49.756;8.610;2023-03-23T22:00:26;14.40;37.20
3402;DHT22;1714;49.756;8.610;2023-03-23T22:11:09;14.60;36.50
3402;DHT22;1714;49.756;8.610;2023-03-23T22:21:45;14.40;39.90
